sensor_id;sensor_type;location;lat;lon;timestamp;temperature;humidity
28336;DHT22;15592;53.656;7.276;2023-03-01T00:01:59;0.20;99.90
28336;DHT22;15592;53.656;7.276;2023-03-01T00:04:24;0.20;99.90
28336;DHT22;15592;53.656;7.276;2023-03-01T00:06:50;0.20;99.90
28336;DHT22;15592;53.656;7.276;2023-03-01T00:09:16;0.20;99.90
28336;DHT22;15592;53.656;7.276;2023-03-01T00:11:43;0.20;99.90
28336;DHT22;15592;53.656;7.276;2023-03-01T00:14:08;0.20;99.90
28336;DHT22;15592;53.656;7.276;2023-03-01T00:16:42;0.20;99.90
28336;DHT22;15592;53.656;7.276;2023-03-01T00:19:11;0.10;99.90
28336;DHT22;15592;53.656;7.276;2023-03-01T00:21:37;0.10;99.90
28336;DHT22;15592;53.656;7.276;2023-03-01T00:24:03;0.00;99.90
28336;DHT22;15592;53.656;7.276;2023-03-01T00:26:29;0.00;99.90
28336;DHT22;15592;53.656;7.276;2023-03-01T00:28:57;-0.10;99.90
28336;DHT22;15592;53.656;7.276;2023-03-01T00:31:26;-0.20;99.90
28336;DHT22;15592;53.656;7.276;2023-03-01T00:33:57;-0.30;99.90
28336;DHT22;15592;53.656;7.276;2023-03-01T00:36:25;-0.20;99.90
28336;DHT22;15592;53.656;7.276;2023-03-01T00:38:51;-0.20;99.90
28336;DHT22;15592;53.656;7.276;2023-03-01T00:41:18;-0.20;99.90
28336;DHT22;15592;53.656;7.276;2023-03-01T00:43:45;-0.20;99.90
28336;DHT22;15592;53.656;7.276;2023-03-01T00:46:17;-0.30;99.90
28336;DHT22;15592;53.656;7.276;2023-03-01T00:48:42;-0.50;99.90
28336;DHT22;15592;53.656;7.276;2023-03-01T00:51:14;-0.60;99.90
28336;DHT22;15592;53.656;7.276;2023-03-01T00:53:41;-0.60;99.90
28336;DHT22;15592;53.656;7.276;2023-03-01T00:56:12;-0.60;99.90
28336;DHT22;15592;53.656;7.276;2023-03-01T00:58:37;-0.70;99.90
28336;DHT22;15592;53.656;7.276;2023-03-01T01:01:11;-0.70;99.90
28336;DHT22;15592;53.656;7.276;2023-03-01T01:03:46;-0.70;99.90
28336;DHT22;15592;53.656;7.276;2023-03-01T01:06:38;-0.70;99.90
28336;DHT22;15592;53.656;7.276;2023-03-01T01:09:04;-0.70;99.90
28336;DHT22;15592;53.656;7.276;2023-03-01T01:11:30;-0.70;99.90
28336;DHT22;15592;53.656;7.276;2023-03-01T01:13:57;-0.70;99.90
28336;DHT22;15592;53.656;7.276;2023-03-01T01:16:25;-0.70;99.90
28336;DHT22;15592;53.656;7.276;2023-03-01T01:18:51;-0.70;99.90
28336;DHT22;15592;53.656;7.276;2023-03-01T01:21:18;-0.70;99.90
28336;DHT22;15592;53.656;7.276;2023-03-01T01:23:45;-0.70;99.90
28336;DHT22;15592;53.656;7.276;2023-03-01T01:26:20;-0.70;99.90
28336;DHT22;15592;53.656;7.276;2023-03-01T01:28:47;-0.70;99.90
28336;DHT22;15592;53.656;7.276;2023-03-01T01:31:14;-0.70;99.90
28336;DHT22;15592;53.656;7.276;2023-03-01T01:33:40;-0.70;99.90
28336;DHT22;15592;53.656;7.276;2023-03-01T01:36:06;-0.70;99.90
28336;DHT22;15592;53.656;7.276;2023-03-01T01:38:32;-0.70;99.90
28336;DHT22;15592;53.656;7.276;2023-03-01T01:40:58;-0.80;99.90
28336;DHT22;15592;53.656;7.276;2023-03-01T01:43:31;-0.80;99.90
28336;DHT22;15592;53.656;7.276;2023-03-01T01:46:02;-0.90;99.90
28336;DHT22;15592;53.656;7.276;2023-03-01T01:48:44;-0.90;99.90
28336;DHT22;15592;53.656;7.276;2023-03-01T01:51:15;-0.90;99.90
28336;DHT22;15592;53.656;7.276;2023-03-01T01:53:45;-0.90;99.90
28336;DHT22;15592;53.656;7.276;2023-03-01T01:56:13;-0.90;99.90
28336;DHT22;15592;53.656;7.276;2023-03-01T01:58:42;-1.00;99.90
28336;DHT22;15592;53.656;7.276;2023-03-01T02:01:09;-1.00;99.90
28336;DHT22;15592;53.656;7.276;2023-03-01T02:03:37;-1.00;99.90
28336;DHT22;15592;53.656;7.276;2023-03-01T02:06:19;-1.00;99.90
28336;DHT22;15592;53.656;7.276;2023-03-01T02:08:49;-1.00;99.90
28336;DHT22;15592;53.656;7.276;2023-03-01T02:11:17;-1.00;99.90
28336;DHT22;15592;53.656;7.276;2023-03-01T02:13:44;-1.00;99.90
28336;DHT22;15592;53.656;7.276;2023-03-01T02:16:11;-1.00;99.90
28336;DHT22;15592;53.656;7.276;2023-03-01T02:18:40;-1.00;99.90
28336;DHT22;15592;53.656;7.276;2023-03-01T02:23:50;-1.00;99.90
28336;DHT22;15592;53.656;7.276;2023-03-01T02:26:24;-1.00;99.90
28336;DHT22;15592;53.656;7.276;2023-03-01T02:28:54;-1.00;99.90
28336;DHT22;15592;53.656;7.276;2023-03-01T02:31:21;-1.10;99.90
28336;DHT22;15592;53.656;7.276;2023-03-01T02:34:05;-1.10;99.90
28336;DHT22;15592;53.656;7.276;2023-03-01T02:36:36;-1.00;99.90
28336;DHT22;15592;53.656;7.276;2023-03-01T02:39:05;-0.90;99.90
28336;DHT22;15592;53.656;7.276;2023-03-01T02:41:42;-1.00;99.90
28336;DHT22;15592;53.656;7.276;2023-03-01T02:44:08;-1.00;99.90
28336;DHT22;15592;53.656;7.276;2023-03-01T02:46:42;-0.90;99.90
28336;DHT22;15592;53.656;7.276;2023-03-01T02:49:31;-0.80;99.90
28336;DHT22;15592;53.656;7.276;2023-03-01T02:57:29;-0.70;99.90
28336;DHT22;15592;53.656;7.276;2023-03-01T02:59:58;-0.80;99.90
28336;DHT22;15592;53.656;7.276;2023-03-01T03:02:29;-0.80;99.90
28336;DHT22;15592;53.656;7.276;2023-03-01T03:05:30;-0.80;99.90
28336;DHT22;15592;53.656;7.276;2023-03-01T03:07:58;-0.80;99.90
28336;DHT22;15592;53.656;7.276;2023-03-01T03:10:26;-0.90;99.90
28336;DHT22;15592;53.656;7.276;2023-03-01T03:12:55;-0.90;99.90
28336;DHT22;15592;53.656;7.276;2023-03-01T03:15:21;-0.90;99.90
28336;DHT22;15592;53.656;7.276;2023-03-01T03:17:48;-0.90;99.90
28336;DHT22;15592;53.656;7.276;2023-03-01T03:20:16;-0.90;99.90
28336;DHT22;15592;53.656;7.276;2023-03-01T03:22:45;-0.90;99.90
28336;DHT22;15592;53.656;7.276;2023-03-01T03:25:11;-0.90;99.90
28336;DHT22;15592;53.656;7.276;2023-03-01T03:27:38;-0.90;99.90
28336;DHT22;15592;53.656;7.276;2023-03-01T03:30:06;-0.90;99.90
28336;DHT22;15592;53.656;7.276;2023-03-01T03:32:37;-0.90;99.90
28336;DHT22;15592;53.656;7.276;2023-03-01T03:35:07;-1.00;99.90
28336;DHT22;15592;53.656;7.276;2023-03-01T03:37:40;-1.10;99.90
28336;DHT22;15592;53.656;7.276;2023-03-01T03:40:27;-1.20;99.90
28336;DHT22;15592;53.656;7.276;2023-03-01T03:42:54;-1.30;99.90
28336;DHT22;15592;53.656;7.276;2023-03-01T03:45:20;-1.30;99.90
28336;DHT22;15592;53.656;7.276;2023-03-01T03:47:45;-1.40;99.90
28336;DHT22;15592;53.656;7.276;2023-03-01T03:50:12;-1.40;99.90
28336;DHT22;15592;53.656;7.276;2023-03-01T03:52:38;-1.40;99.90
28336;DHT22;15592;53.656;7.276;2023-03-01T03:55:05;-1.40;99.90
28336;DHT22;15592;53.656;7.276;2023-03-01T03:57:40;-1.40;99.90
28336;DHT22;15592;53.656;7.276;2023-03-01T04:00:10;-1.40;99.90
28336;DHT22;15592;53.656;7.276;2023-03-01T04:02:42;-1.50;99.90
28336;DHT22;15592;53.656;7.276;2023-03-01T04:05:09;-1.50;99.90
28336;DHT22;15592;53.656;7.276;2023-03-01T04:07:36;-1.50;99.90
28336;DHT22;15592;53.656;7.276;2023-03-01T04:10:03;-1.50;99.90
28336;DHT22;15592;53.656;7.276;2023-03-01T04:12:29;-1.50;99.90
28336;DHT22;15592;53.656;7.276;2023-03-01T04:14:55;-1.50;99.90
28336;DHT22;15592;53.656;7.276;2023-03-01T04:17:21;-1.50;99.90
28336;DHT22;15592;53.656;7.276;2023-03-01T04:19:46;-1.50;99.90
28336;DHT22;15592;53.656;7.276;2023-03-01T04:22:14;-1.50;99.90
28336;DHT22;15592;53.656;7.276;2023-03-01T04:24:42;-1.50;99.90
28336;DHT22;15592;53.656;7.276;2023-03-01T04:27:09;-1.50;99.90
28336;DHT22;15592;53.656;7.276;2023-03-01T04:29:34;-1.40;99.90
28336;DHT22;15592;53.656;7.276;2023-03-01T04:32:00;-1.50;99.90
28336;DHT22;15592;53.656;7.276;2023-03-01T04:34:25;-1.50;99.90
28336;DHT22;15592;53.656;7.276;2023-03-01T04:36:54;-1.50;99.90
28336;DHT22;15592;53.656;7.276;2023-03-01T04:39:19;-1.50;99.90
28336;DHT22;15592;53.656;7.276;2023-03-01T04:41:45;-1.50;99.90
28336;DHT22;15592;53.656;7.276;2023-03-01T04:44:11;-1.50;99.90
28336;DHT22;15592;53.656;7.276;2023-03-01T04:46:36;-1.50;99.90
28336;DHT22;15592;53.656;7.276;2023-03-01T04:49:03;-1.60;99.90
28336;DHT22;15592;53.656;7.276;2023-03-01T04:51:29;-1.60;99.90
28336;DHT22;15592;53.656;7.276;2023-03-01T04:53:54;-1.60;99.90
28336;DHT22;15592;53.656;7.276;2023-03-01T04:56:20;-1.60;99.90
28336;DHT22;15592;53.656;7.276;2023-03-01T04:58:48;-1.60;99.90
28336;DHT22;15592;53.656;7.276;2023-03-01T05:01:16;-1.60;99.90
28336;DHT22;15592;53.656;7.276;2023-03-01T05:03:49;-1.60;99.90
28336;DHT22;15592;53.656;7.276;2023-03-01T05:06:16;-1.50;99.90
28336;DHT22;15592;53.656;7.276;2023-03-01T05:08:43;-1.50;99.90
28336;DHT22;15592;53.656;7.276;2023-03-01T05:11:10;-1.50;99.90
28336;DHT22;15592;53.656;7.276;2023-03-01T05:13:37;-1.40;99.90
28336;DHT22;15592;53.656;7.276;2023-03-01T05:16:04;-1.40;99.90
28336;DHT22;15592;53.656;7.276;2023-03-01T05:18:33;-1.40;99.90
28336;DHT22;15592;53.656;7.276;2023-03-01T05:23:30;-1.40;99.90
28336;DHT22;15592;53.656;7.276;2023-03-01T05:25:58;-1.40;99.90
28336;DHT22;15592;53.656;7.276;2023-03-01T05:28:25;-1.40;99.90
28336;DHT22;15592;53.656;7.276;2023-03-01T05:30:51;-1.40;99.90
28336;DHT22;15592;53.656;7.276;2023-03-01T05:33:17;-1.30;99.90
28336;DHT22;15592;53.656;7.276;2023-03-01T05:35:45;-1.30;99.90
28336;DHT22;15592;53.656;7.276;2023-03-01T05:38:12;-1.30;99.90
28336;DHT22;15592;53.656;7.276;2023-03-01T05:40:40;-1.30;99.90
28336;DHT22;15592;53.656;7.276;2023-03-01T05:43:05;-1.20;99.90
28336;DHT22;15592;53.656;7.276;2023-03-01T05:45:31;-1.30;99.90
28336;DHT22;15592;53.656;7.276;2023-03-01T05:48:00;-1.30;99.90
28336;DHT22;15592;53.656;7.276;2023-03-01T05:50:28;-1.30;99.90
28336;DHT22;15592;53.656;7.276;2023-03-01T05:53:00;-1.30;99.90
28336;DHT22;15592;53.656;7.276;2023-03-01T05:55:28;-1.40;99.90
28336;DHT22;15592;53.656;7.276;2023-03-01T05:57:54;-1.40;99.90
28336;DHT22;15592;53.656;7.276;2023-03-01T06:00:20;-1.40;99.90
28336;DHT22;15592;53.656;7.276;2023-03-01T06:02:48;-1.40;99.90
28336;DHT22;15592;53.656;7.276;2023-03-01T06:05:14;-1.40;99.90
28336;DHT22;15592;53.656;7.276;2023-03-01T06:07:41;-1.40;99.90
28336;DHT22;15592;53.656;7.276;2023-03-01T06:10:07;-1.30;99.90
28336;DHT22;15592;53.656;7.276;2023-03-01T06:12:36;-1.30;99.90
28336;DHT22;15592;53.656;7.276;2023-03-01T06:15:03;-1.30;99.90
28336;DHT22;15592;53.656;7.276;2023-03-01T06:17:31;-1.30;99.90
28336;DHT22;15592;53.656;7.276;2023-03-01T06:19:57;-1.20;99.90
28336;DHT22;15592;53.656;7.276;2023-03-01T06:22:23;-1.20;99.90
28336;DHT22;15592;53.656;7.276;2023-03-01T06:24:49;-1.30;99.90
28336;DHT22;15592;53.656;7.276;2023-03-01T06:27:15;-1.30;99.90
28336;DHT22;15592;53.656;7.276;2023-03-01T06:29:40;-1.20;99.90
28336;DHT22;15592;53.656;7.276;2023-03-01T06:32:06;-1.30;99.90
28336;DHT22;15592;53.656;7.276;2023-03-01T06:34:33;-1.30;99.90
28336;DHT22;15592;53.656;7.276;2023-03-01T06:36:58;-1.30;99.90
28336;DHT22;15592;53.656;7.276;2023-03-01T06:39:24;-1.30;99.90
28336;DHT22;15592;53.656;7.276;2023-03-01T06:41:50;-1.40;99.90
28336;DHT22;15592;53.656;7.276;2023-03-01T06:44:15;-1.40;99.90
28336;DHT22;15592;53.656;7.276;2023-03-01T06:46:41;-1.50;99.90
28336;DHT22;15592;53.656;7.276;2023-03-01T06:49:07;-1.50;99.90
28336;DHT22;15592;53.656;7.276;2023-03-01T06:51:36;-1.50;99.90
28336;DHT22;15592;53.656;7.276;2023-03-01T06:54:03;-1.50;99.90
28336;DHT22;15592;53.656;7.276;2023-03-01T06:56:29;-1.50;99.90
28336;DHT22;15592;53.656;7.276;2023-03-01T06:58:54;-1.50;99.90
28336;DHT22;15592;53.656;7.276;2023-03-01T07:01:20;-1.50;99.90
28336;DHT22;15592;53.656;7.276;2023-03-01T07:03:45;-1.50;99.90
28336;DHT22;15592;53.656;7.276;2023-03-01T07:06:11;-1.50;99.90
28336;DHT22;15592;53.656;7.276;2023-03-01T07:08:37;-1.60;99.90
28336;DHT22;15592;53.656;7.276;2023-03-01T07:11:02;-1.60;99.90
28336;DHT22;15592;53.656;7.276;2023-03-01T07:13:29;-1.60;99.90
28336;DHT22;15592;53.656;7.276;2023-03-01T07:15:55;-1.50;99.90
28336;DHT22;15592;53.656;7.276;2023-03-01T07:18:20;-1.50;99.90
28336;DHT22;15592;53.656;7.276;2023-03-01T07:20:46;-1.40;99.90
28336;DHT22;15592;53.656;7.276;2023-03-01T07:23:11;-1.30;99.90
28336;DHT22;15592;53.656;7.276;2023-03-01T07:25:37;-1.30;99.90
28336;DHT22;15592;53.656;7.276;2023-03-01T07:28:03;-1.20;99.90
28336;DHT22;15592;53.656;7.276;2023-03-01T07:30:28;-1.20;99.90
28336;DHT22;15592;53.656;7.276;2023-03-01T07:32:55;-1.10;99.90
28336;DHT22;15592;53.656;7.276;2023-03-01T07:35:22;-1.00;99.90
28336;DHT22;15592;53.656;7.276;2023-03-01T07:37:48;-1.00;99.90
28336;DHT22;15592;53.656;7.276;2023-03-01T07:40:13;-0.90;99.90
28336;DHT22;15592;53.656;7.276;2023-03-01T07:42:39;-0.80;99.90
28336;DHT22;15592;53.656;7.276;2023-03-01T07:45:06;-0.70;99.90
28336;DHT22;15592;53.656;7.276;2023-03-01T07:47:32;-0.60;99.90
28336;DHT22;15592;53.656;7.276;2023-03-01T07:49:57;-0.40;99.90
28336;DHT22;15592;53.656;7.276;2023-03-01T07:52:23;-0.30;99.90
28336;DHT22;15592;53.656;7.276;2023-03-01T07:54:49;-0.30;99.90
28336;DHT22;15592;53.656;7.276;2023-03-01T07:57:14;-0.30;99.90
28336;DHT22;15592;53.656;7.276;2023-03-01T07:59:40;-0.20;99.90
28336;DHT22;15592;53.656;7.276;2023-03-01T08:02:06;-0.20;99.90
28336;DHT22;15592;53.656;7.276;2023-03-01T08:04:32;-0.10;99.90
28336;DHT22;15592;53.656;7.276;2023-03-01T08:06:58;0.00;99.90
28336;DHT22;15592;53.656;7.276;2023-03-01T08:09:24;0.10;99.90
28336;DHT22;15592;53.656;7.276;2023-03-01T08:11:49;0.10;99.90
28336;DHT22;15592;53.656;7.276;2023-03-01T08:14:15;0.20;99.90
28336;DHT22;15592;53.656;7.276;2023-03-01T08:16:40;0.30;99.90
28336;DHT22;15592;53.656;7.276;2023-03-01T08:19:11;0.40;99.90
28336;DHT22;15592;53.656;7.276;2023-03-01T08:21:37;0.40;99.90
28336;DHT22;15592;53.656;7.276;2023-03-01T08:24:06;0.50;99.90
28336;DHT22;15592;53.656;7.276;2023-03-01T08:26:33;0.60;99.90
28336;DHT22;15592;53.656;7.276;2023-03-01T08:29:00;0.70;99.90
28336;DHT22;15592;53.656;7.276;2023-03-01T08:31:35;0.70;99.90
28336;DHT22;15592;53.656;7.276;2023-03-01T08:34:04;0.80;99.90
28336;DHT22;15592;53.656;7.276;2023-03-01T08:36:33;0.90;99.90
28336;DHT22;15592;53.656;7.276;2023-03-01T08:39:00;1.00;99.90
28336;DHT22;15592;53.656;7.276;2023-03-01T08:41:26;1.10;99.90
28336;DHT22;15592;53.656;7.276;2023-03-01T08:43:52;1.20;99.90
28336;DHT22;15592;53.656;7.276;2023-03-01T08:46:26;1.30;99.90
28336;DHT22;15592;53.656;7.276;2023-03-01T08:48:52;1.30;99.90
28336;DHT22;15592;53.656;7.276;2023-03-01T08:51:19;1.40;99.90
28336;DHT22;15592;53.656;7.276;2023-03-01T08:53:45;1.50;99.90
28336;DHT22;15592;53.656;7.276;2023-03-01T08:56:11;1.60;99.90
28336;DHT22;15592;53.656;7.276;2023-03-01T08:58:37;1.70;99.90
28336;DHT22;15592;53.656;7.276;2023-03-01T09:01:09;1.80;99.90
28336;DHT22;15592;53.656;7.276;2023-03-01T09:03:35;1.90;99.90
28336;DHT22;15592;53.656;7.276;2023-03-01T09:06:01;2.00;99.90
28336;DHT22;15592;53.656;7.276;2023-03-01T09:08:27;2.20;99.90
28336;DHT22;15592;53.656;7.276;2023-03-01T09:10:53;2.30;99.90
28336;DHT22;15592;53.656;7.276;2023-03-01T09:13:18;2.30;99.90
28336;DHT22;15592;53.656;7.276;2023-03-01T09:15:44;2.40;99.90
28336;DHT22;15592;53.656;7.276;2023-03-01T09:18:09;2.40;99.90
28336;DHT22;15592;53.656;7.276;2023-03-01T09:20:35;2.40;99.90
28336;DHT22;15592;53.656;7.276;2023-03-01T09:23:01;2.50;99.90
28336;DHT22;15592;53.656;7.276;2023-03-01T09:25:26;2.60;99.90
28336;DHT22;15592;53.656;7.276;2023-03-01T09:27:52;2.60;99.90
28336;DHT22;15592;53.656;7.276;2023-03-01T09:30:18;2.70;99.90
28336;DHT22;15592;53.656;7.276;2023-03-01T09:32:44;2.80;99.90
28336;DHT22;15592;53.656;7.276;2023-03-01T09:35:10;2.80;99.90
28336;DHT22;15592;53.656;7.276;2023-03-01T09:37:37;2.90;99.90
28336;DHT22;15592;53.656;7.276;2023-03-01T09:40:05;2.90;99.90
28336;DHT22;15592;53.656;7.276;2023-03-01T09:42:34;3.00;99.90
28336;DHT22;15592;53.656;7.276;2023-03-01T09:45:33;3.10;99.90
28336;DHT22;15592;53.656;7.276;2023-03-01T09:48:00;3.20;99.90
28336;DHT22;15592;53.656;7.276;2023-03-01T09:50:33;3.30;99.90
28336;DHT22;15592;53.656;7.276;2023-03-01T09:53:19;3.40;99.90
28336;DHT22;15592;53.656;7.276;2023-03-01T09:55:54;3.50;99.90
28336;DHT22;15592;53.656;7.276;2023-03-01T10:01:31;3.70;99.90
28336;DHT22;15592;53.656;7.276;2023-03-01T10:09:55;4.00;99.90
28336;DHT22;15592;53.656;7.276;2023-03-01T10:12:26;4.10;99.90
28336;DHT22;15592;53.656;7.276;2023-03-01T10:15:12;4.20;99.90
28336;DHT22;15592;53.656;7.276;2023-03-01T10:17:46;4.30;99.90
28336;DHT22;15592;53.656;7.276;2023-03-01T10:22:39;4.30;99.90
28336;DHT22;15592;53.656;7.276;2023-03-01T10:25:05;4.40;99.90
28336;DHT22;15592;53.656;7.276;2023-03-01T10:27:54;4.50;99.90
28336;DHT22;15592;53.656;7.276;2023-03-01T10:30:38;4.60;99.90
28336;DHT22;15592;53.656;7.276;2023-03-01T10:33:15;4.80;99.90
28336;DHT22;15592;53.656;7.276;2023-03-01T10:35:42;4.90;99.90
28336;DHT22;15592;53.656;7.276;2023-03-01T10:38:11;4.90;99.90
28336;DHT22;15592;53.656;7.276;2023-03-01T10:40:58;5.00;99.90
28336;DHT22;15592;53.656;7.276;2023-03-01T10:43:26;5.10;99.90
28336;DHT22;15592;53.656;7.276;2023-03-01T10:45:53;5.20;99.90
28336;DHT22;15592;53.656;7.276;2023-03-01T10:48:21;5.30;99.90
28336;DHT22;15592;53.656;7.276;2023-03-01T10:53:32;5.60;99.90
28336;DHT22;15592;53.656;7.276;2023-03-01T10:58:29;5.90;99.90
28336;DHT22;15592;53.656;7.276;2023-03-01T11:00:58;6.00;99.90
28336;DHT22;15592;53.656;7.276;2023-03-01T11:03:36;6.10;99.90
28336;DHT22;15592;53.656;7.276;2023-03-01T11:08:46;6.50;99.90
28336;DHT22;15592;53.656;7.276;2023-03-01T11:11:34;6.60;99.90
28336;DHT22;15592;53.656;7.276;2023-03-01T11:14:06;6.70;99.90
28336;DHT22;15592;53.656;7.276;2023-03-01T11:19:20;6.60;99.90
28336;DHT22;15592;53.656;7.276;2023-03-01T11:22:11;6.50;99.90
28336;DHT22;15592;53.656;7.276;2023-03-01T11:24:46;6.40;99.90
28336;DHT22;15592;53.656;7.276;2023-03-01T11:32:28;6.00;99.90
28336;DHT22;15592;53.656;7.276;2023-03-01T11:35:01;6.00;99.90
28336;DHT22;15592;53.656;7.276;2023-03-01T11:40:26;6.10;99.90
28336;DHT22;15592;53.656;7.276;2023-03-01T11:45:31;6.30;99.90
28336;DHT22;15592;53.656;7.276;2023-03-01T11:48:17;6.40;99.90
28336;DHT22;15592;53.656;7.276;2023-03-01T11:50:50;6.50;99.90
28336;DHT22;15592;53.656;7.276;2023-03-01T11:56:36;6.60;99.90
28336;DHT22;15592;53.656;7.276;2023-03-01T11:59:39;6.70;99.90
28336;DHT22;15592;53.656;7.276;2023-03-01T12:02:53;6.70;99.90
28336;DHT22;15592;53.656;7.276;2023-03-01T12:05:20;6.80;99.90
28336;DHT22;15592;53.656;7.276;2023-03-01T12:08:04;6.80;99.90
28336;DHT22;15592;53.656;7.276;2023-03-01T12:16:02;7.00;99.90
28336;DHT22;15592;53.656;7.276;2023-03-01T12:18:48;7.10;99.90
28336;DHT22;15592;53.656;7.276;2023-03-01T12:37:42;7.20;99.90
28336;DHT22;15592;53.656;7.276;2023-03-01T12:43:22;7.20;99.90
28336;DHT22;15592;53.656;7.276;2023-03-01T12:46:19;7.00;99.90
28336;DHT22;15592;53.656;7.276;2023-03-01T12:49:01;6.90;99.90
28336;DHT22;15592;53.656;7.276;2023-03-01T12:51:31;6.90;99.90
28336;DHT22;15592;53.656;7.276;2023-03-01T12:53:59;6.80;99.90
28336;DHT22;15592;53.656;7.276;2023-03-01T12:56:31;6.60;99.90
28336;DHT22;15592;53.656;7.276;2023-03-01T13:01:45;6.50;99.90
28336;DHT22;15592;53.656;7.276;2023-03-01T13:07:31;6.40;99.90
28336;DHT22;15592;53.656;7.276;2023-03-01T13:17:58;6.40;99.90
28336;DHT22;15592;53.656;7.276;2023-03-01T13:20:48;6.40;99.90
28336;DHT22;15592;53.656;7.276;2023-03-01T13:28:39;6.50;99.90
28336;DHT22;15592;53.656;7.276;2023-03-01T13:33:54;6.50;99.90
28336;DHT22;15592;53.656;7.276;2023-03-01T13:44:30;6.40;99.90
28336;DHT22;15592;53.656;7.276;2023-03-01T13:47:14;6.50;99.90
28336;DHT22;15592;53.656;7.276;2023-03-01T13:49:53;6.50;99.90
28336;DHT22;15592;53.656;7.276;2023-03-01T13:54:58;6.50;99.90
28336;DHT22;15592;53.656;7.276;2023-03-01T13:57:38;6.60;99.90
28336;DHT22;15592;53.656;7.276;2023-03-01T14:00:23;6.70;99.90
28336;DHT22;15592;53.656;7.276;2023-03-01T14:03:00;6.70;99.90
28336;DHT22;15592;53.656;7.276;2023-03-01T14:05:26;6.60;99.90
28336;DHT22;15592;53.656;7.276;2023-03-01T14:07:51;6.50;99.90
28336;DHT22;15592;53.656;7.276;2023-03-01T14:10:17;6.40;99.90
28336;DHT22;15592;53.656;7.276;2023-03-01T14:15:33;6.30;99.90
28336;DHT22;15592;53.656;7.276;2023-03-01T14:20:37;6.20;99.90
28336;DHT22;15592;53.656;7.276;2023-03-01T14:23:11;6.10;99.90
28336;DHT22;15592;53.656;7.276;2023-03-01T14:25:38;6.10;99.90
28336;DHT22;15592;53.656;7.276;2023-03-01T14:28:19;6.10;99.90
28336;DHT22;15592;53.656;7.276;2023-03-01T14:33:30;6.20;99.90
28336;DHT22;15592;53.656;7.276;2023-03-01T14:36:07;6.20;99.90
28336;DHT22;15592;53.656;7.276;2023-03-01T14:38:37;6.20;99.90
28336;DHT22;15592;53.656;7.276;2023-03-01T14:41:12;6.20;99.90
28336;DHT22;15592;53.656;7.276;2023-03-01T14:44:13;6.10;99.90
28336;DHT22;15592;53.656;7.276;2023-03-01T14:46:38;6.00;99.90
28336;DHT22;15592;53.656;7.276;2023-03-01T14:51:39;6.00;99.90
28336;DHT22;15592;53.656;7.276;2023-03-01T14:57:24;5.90;99.90
28336;DHT22;15592;53.656;7.276;2023-03-01T14:59:55;5.90;99.90
28336;DHT22;15592;53.656;7.276;2023-03-01T15:02:24;5.80;99.90
28336;DHT22;15592;53.656;7.276;2023-03-01T15:04:59;5.90;99.90
28336;DHT22;15592;53.656;7.276;2023-03-01T15:07:36;5.90;99.90
28336;DHT22;15592;53.656;7.276;2023-03-01T15:10:04;5.80;99.90
28336;DHT22;15592;53.656;7.276;2023-03-01T15:12:38;5.70;99.90
28336;DHT22;15592;53.656;7.276;2023-03-01T15:18:00;5.60;99.90
28336;DHT22;15592;53.656;7.276;2023-03-01T15:20:27;5.60;99.90
28336;DHT22;15592;53.656;7.276;2023-03-01T15:22:55;5.60;99.90
28336;DHT22;15592;53.656;7.276;2023-03-01T15:25:27;5.50;99.90
28336;DHT22;15592;53.656;7.276;2023-03-01T15:28:12;5.50;99.90
28336;DHT22;15592;53.656;7.276;2023-03-01T15:31:20;5.50;99.90
28336;DHT22;15592;53.656;7.276;2023-03-01T15:33:44;5.50;99.90
28336;DHT22;15592;53.656;7.276;2023-03-01T15:36:45;5.50;99.90
28336;DHT22;15592;53.656;7.276;2023-03-01T15:39:30;5.50;99.90
28336;DHT22;15592;53.656;7.276;2023-03-01T15:41:56;5.40;99.90
28336;DHT22;15592;53.656;7.276;2023-03-01T15:44:34;5.40;99.90
28336;DHT22;15592;53.656;7.276;2023-03-01T15:47:01;5.30;99.90
28336;DHT22;15592;53.656;7.276;2023-03-01T15:49:42;5.30;99.90
28336;DHT22;15592;53.656;7.276;2023-03-01T15:55:58;5.20;99.90
28336;DHT22;15592;53.656;7.276;2023-03-01T15:58:24;5.20;99.90
28336;DHT22;15592;53.656;7.276;2023-03-01T16:00:51;5.10;99.90
28336;DHT22;15592;53.656;7.276;2023-03-01T16:03:21;5.10;99.90
28336;DHT22;15592;53.656;7.276;2023-03-01T16:05:48;5.10;99.90
28336;DHT22;15592;53.656;7.276;2023-03-01T16:08:18;5.10;99.90
28336;DHT22;15592;53.656;7.276;2023-03-01T16:10:48;5.10;99.90
28336;DHT22;15592;53.656;7.276;2023-03-01T16:13:17;5.10;99.90
28336;DHT22;15592;53.656;7.276;2023-03-01T16:16:10;5.00;99.90
28336;DHT22;15592;53.656;7.276;2023-03-01T16:18:45;4.90;99.90
28336;DHT22;15592;53.656;7.276;2023-03-01T16:21:36;4.80;99.90
28336;DHT22;15592;53.656;7.276;2023-03-01T16:24:14;4.90;99.90
28336;DHT22;15592;53.656;7.276;2023-03-01T16:26:45;4.90;99.90
28336;DHT22;15592;53.656;7.276;2023-03-01T16:29:11;4.90;99.90
28336;DHT22;15592;53.656;7.276;2023-03-01T16:31:40;4.80;99.90
28336;DHT22;15592;53.656;7.276;2023-03-01T16:34:06;4.80;99.90
28336;DHT22;15592;53.656;7.276;2023-03-01T16:36:31;4.70;99.90
28336;DHT22;15592;53.656;7.276;2023-03-01T16:38:58;4.60;99.90
28336;DHT22;15592;53.656;7.276;2023-03-01T16:41:26;4.60;99.90
28336;DHT22;15592;53.656;7.276;2023-03-01T16:43:52;4.60;99.90
28336;DHT22;15592;53.656;7.276;2023-03-01T16:46:28;4.60;99.90
28336;DHT22;15592;53.656;7.276;2023-03-01T16:48:54;4.60;99.90
28336;DHT22;15592;53.656;7.276;2023-03-01T16:51:21;4.60;99.90
28336;DHT22;15592;53.656;7.276;2023-03-01T16:53:48;4.50;99.90
28336;DHT22;15592;53.656;7.276;2023-03-01T16:56:15;4.40;99.90
28336;DHT22;15592;53.656;7.276;2023-03-01T16:58:41;4.40;99.90
28336;DHT22;15592;53.656;7.276;2023-03-01T17:01:09;4.40;99.90
28336;DHT22;15592;53.656;7.276;2023-03-01T17:03:36;4.40;99.90
28336;DHT22;15592;53.656;7.276;2023-03-01T17:06:04;4.40;99.90
28336;DHT22;15592;53.656;7.276;2023-03-01T17:08:30;4.40;99.90
28336;DHT22;15592;53.656;7.276;2023-03-01T17:11:02;4.40;99.90
28336;DHT22;15592;53.656;7.276;2023-03-01T17:13:27;4.40;99.90
28336;DHT22;15592;53.656;7.276;2023-03-01T17:15:53;4.40;99.90
28336;DHT22;15592;53.656;7.276;2023-03-01T17:18:19;4.40;99.90
28336;DHT22;15592;53.656;7.276;2023-03-01T17:20:44;4.30;99.90
28336;DHT22;15592;53.656;7.276;2023-03-01T17:23:10;4.30;99.90
28336;DHT22;15592;53.656;7.276;2023-03-01T17:25:35;4.20;99.90
28336;DHT22;15592;53.656;7.276;2023-03-01T17:28:01;4.20;99.90
28336;DHT22;15592;53.656;7.276;2023-03-01T17:30:26;4.20;99.90
28336;DHT22;15592;53.656;7.276;2023-03-01T17:32:52;4.20;99.90
28336;DHT22;15592;53.656;7.276;2023-03-01T17:35:20;4.20;99.90
28336;DHT22;15592;53.656;7.276;2023-03-01T17:37:45;4.20;99.90
28336;DHT22;15592;53.656;7.276;2023-03-01T17:40:12;4.20;99.90
28336;DHT22;15592;53.656;7.276;2023-03-01T17:42:37;4.20;99.90
28336;DHT22;15592;53.656;7.276;2023-03-01T17:45:03;4.20;99.90
28336;DHT22;15592;53.656;7.276;2023-03-01T17:47:29;4.20;99.90
28336;DHT22;15592;53.656;7.276;2023-03-01T17:49:54;4.20;99.90
28336;DHT22;15592;53.656;7.276;2023-03-01T17:52:20;4.20;99.90
28336;DHT22;15592;53.656;7.276;2023-03-01T17:54:48;4.10;99.90
28336;DHT22;15592;53.656;7.276;2023-03-01T17:57:14;4.10;99.90
28336;DHT22;15592;53.656;7.276;2023-03-01T17:59:40;4.10;99.90
28336;DHT22;15592;53.656;7.276;2023-03-01T18:02:06;4.10;99.90